createdAt,value
2023-04-29T00:01:06.820Z,101209.31
2023-04-29T00:03:33.630Z,101205.66
2023-04-29T00:06:01.228Z,101199.34
2023-04-29T00:08:28.318Z,101209.16
2023-04-29T00:10:55.478Z,101201.97
2023-04-29T00:13:23.147Z,101200.19
2023-04-29T00:15:50.520Z,101215.34
2023-04-29T00:18:17.159Z,101211.81
2023-04-29T00:20:43.870Z,101196.44
2023-04-29T00:23:11.776Z,101157.84
2023-04-29T00:25:38.889Z,101216.94
2023-04-29T00:28:08.478Z,101235.75
2023-04-29T00:30:35.409Z,101193.53
2023-04-29T00:33:02.534Z,101205.75
2023-04-29T00:35:30.625Z,101239.84
2023-04-29T00:37:57.428Z,101252.25
2023-04-29T00:40:24.165Z,101255.72
2023-04-29T00:42:50.897Z,101227.88
2023-04-29T00:45:17.410Z,101235.13
2023-04-29T00:47:44.008Z,101214.59
2023-04-29T00:50:10.899Z,101215.44
2023-04-29T00:52:38.758Z,101225.16
2023-04-29T00:55:08.834Z,101223.41
2023-04-29T00:57:36.476Z,101243.13
2023-04-29T01:00:04.056Z,101252.00
2023-04-29T01:02:30.784Z,101173.88
2023-04-29T01:04:57.626Z,101257.94
2023-04-29T01:07:34.475Z,101261.53
2023-04-29T01:10:15.819Z,101268.69
2023-04-29T01:12:54.719Z,101244.38
2023-04-29T01:15:26.198Z,101274.78
2023-04-29T01:18:05.141Z,101254.84
2023-04-29T01:20:33.649Z,101261.13
2023-04-29T01:23:01.527Z,101287.81
2023-04-29T01:25:28.714Z,101251.88
2023-04-29T01:28:34.877Z,101284.94
2023-04-29T01:31:11.532Z,101292.00
2023-04-29T01:33:50.182Z,101267.81
2023-04-29T01:36:51.388Z,101292.72
2023-04-29T01:39:33.389Z,101300.66
2023-04-29T01:42:14.460Z,101298.84
2023-04-29T01:44:42.538Z,101286.19
2023-04-29T01:47:13.969Z,101278.19
2023-04-29T01:49:46.811Z,101291.69
2023-04-29T01:52:14.416Z,101284.25
2023-04-29T01:54:46.113Z,101295.78
2023-04-29T01:57:12.930Z,101277.09
2023-04-29T01:59:53.735Z,101268.13
2023-04-29T02:02:41.529Z,101305.81
2023-04-29T02:05:17.270Z,101302.19
2023-04-29T02:07:52.200Z,101255.53
2023-04-29T02:10:18.825Z,101288.00
2023-04-29T02:12:47.900Z,101301.25
2023-04-29T02:15:15.903Z,101305.03
2023-04-29T02:17:43.554Z,101317.44
2023-04-29T02:20:10.830Z,101274.41
2023-04-29T02:22:37.440Z,101287.84
2023-04-29T02:25:04.237Z,101316.56
2023-04-29T02:27:31.595Z,101228.44
2023-04-29T02:29:58.910Z,101315.63
2023-04-29T02:32:25.921Z,101335.13
2023-04-29T02:34:53.656Z,101334.19
2023-04-29T02:37:21.524Z,101319.94
2023-04-29T02:39:48.175Z,101319.75
2023-04-29T02:42:14.773Z,101333.25
2023-04-29T02:44:42.541Z,101351.16
2023-04-29T02:47:09.196Z,101280.22
2023-04-29T02:49:36.265Z,101354.69
2023-04-29T02:52:02.881Z,101330.44
2023-04-29T02:54:29.606Z,101333.19
2023-04-29T02:56:56.264Z,101344.75
2023-04-29T02:59:23.018Z,101317.06
2023-04-29T03:01:50.209Z,101338.63
2023-04-29T03:04:16.989Z,101358.25
2023-04-29T03:06:44.349Z,101344.78
2023-04-29T03:09:13.218Z,101363.63
2023-04-29T03:11:40.233Z,101333.94
2023-04-29T03:14:06.977Z,101369.78
2023-04-29T03:16:34.763Z,101358.03
2023-04-29T03:19:01.491Z,101360.72
2023-04-29T03:21:29.801Z,101331.03
2023-04-29T03:23:57.392Z,101365.09
2023-04-29T03:26:29.932Z,101357.06
2023-04-29T03:28:58.433Z,101379.41
2023-04-29T03:31:27.313Z,101359.56
2023-04-29T03:33:54.046Z,101388.25
2023-04-29T03:36:21.541Z,101371.34
2023-04-29T03:38:58.129Z,101333.78
2023-04-29T03:41:25.148Z,101375.00
2023-04-29T03:43:52.604Z,101379.31
2023-04-29T03:46:19.374Z,101289.66
2023-04-29T03:48:46.250Z,101385.69
2023-04-29T03:51:13.654Z,101393.69
2023-04-29T03:53:41.107Z,101372.97
2023-04-29T03:56:09.274Z,101378.38
2023-04-29T03:58:37.786Z,101358.59
2023-04-29T04:01:04.616Z,101376.56
2023-04-29T04:03:38.898Z,101387.41
2023-04-29T04:06:05.726Z,101324.50
2023-04-29T04:08:32.416Z,101419.53
2023-04-29T04:11:15.022Z,101399.81
2023-04-29T04:13:45.065Z,101397.97
2023-04-29T04:16:13.344Z,101402.47
2023-04-29T04:18:40.374Z,101397.22
2023-04-29T04:21:11.872Z,101338.88
2023-04-29T04:23:41.353Z,101409.63
2023-04-29T04:26:10.279Z,101408.03
2023-04-29T04:28:55.774Z,101408.75
2023-04-29T04:31:48.647Z,101413.13
2023-04-29T04:34:17.177Z,101414.84
2023-04-29T04:36:46.900Z,101425.53
2023-04-29T04:39:13.607Z,101419.34
2023-04-29T04:41:40.592Z,101441.69
2023-04-29T04:44:07.856Z,101429.94
2023-04-29T04:46:42.485Z,101426.34
2023-04-29T04:49:14.456Z,101457.75
2023-04-29T04:51:48.755Z,101461.34
2023-04-29T04:54:15.629Z,101438.84
2023-04-29T04:56:42.413Z,101431.75
2023-04-29T04:59:09.492Z,101451.19
2023-04-29T05:01:38.502Z,101483.47
2023-04-29T05:04:05.481Z,101467.38
2023-04-29T05:06:32.154Z,101476.28
2023-04-29T05:09:00.540Z,101456.50
2023-04-29T05:11:27.161Z,101482.50
2023-04-29T05:14:08.056Z,101501.19
2023-04-29T05:16:35.863Z,101470.69
2023-04-29T05:19:02.560Z,101497.59
2023-04-29T05:21:32.876Z,101505.75
2023-04-29T05:24:00.660Z,101493.16
2023-04-29T05:26:27.164Z,101500.28
2023-04-29T05:28:58.301Z,101476.19
2023-04-29T05:31:26.102Z,101484.31
2023-04-29T05:33:52.847Z,101512.28
2023-04-29T05:36:19.568Z,101497.75
2023-04-29T05:38:47.229Z,101490.56
2023-04-29T05:41:14.271Z,101522.97
2023-04-29T05:44:11.263Z,101524.69
2023-04-29T05:46:38.076Z,101496.16
2023-04-29T05:49:04.850Z,101507.81
2023-04-29T05:51:32.108Z,101506.97
2023-04-29T05:54:00.305Z,101518.72
2023-04-29T05:56:28.522Z,101521.63
2023-04-29T05:58:56.197Z,101527.25
2023-04-29T06:01:23.052Z,101512.44
2023-04-29T06:03:49.796Z,101450.03
2023-04-29T06:06:39.108Z,101549.78
2023-04-29T06:09:27.631Z,101550.13
2023-04-29T06:11:56.851Z,101535.88
2023-04-29T06:14:23.606Z,101529.94
2023-04-29T06:16:50.716Z,101536.22
2023-04-29T06:19:17.456Z,101511.97
2023-04-29T06:21:44.066Z,101530.81
2023-04-29T06:24:10.671Z,101581.16
2023-04-29T06:26:37.406Z,101579.56
2023-04-29T06:29:03.964Z,101485.38
2023-04-29T06:31:30.687Z,101519.59
2023-04-29T06:34:02.045Z,101563.66
2023-04-29T06:36:29.000Z,101556.53
2023-04-29T06:39:07.458Z,101548.69
2023-04-29T06:41:48.053Z,101553.00
2023-04-29T06:44:52.675Z,101604.34
2023-04-29T06:47:37.581Z,101518.38
2023-04-29T06:50:11.410Z,101589.16
2023-04-29T06:52:37.951Z,101619.81
2023-04-29T06:55:04.934Z,101619.25
2023-04-29T06:57:32.121Z,101613.16
2023-04-29T06:59:58.764Z,101554.88
2023-04-29T07:02:25.452Z,101547.78
2023-04-29T07:04:52.626Z,101624.75
2023-04-29T07:07:19.396Z,101561.00
2023-04-29T07:09:46.074Z,101557.34
2023-04-29T07:12:12.646Z,101580.50
2023-04-29T07:14:39.187Z,101639.66
2023-04-29T07:17:05.962Z,101635.09
2023-04-29T07:19:32.687Z,101652.19
2023-04-29T07:21:59.295Z,101613.66
2023-04-29T07:24:26.538Z,101654.09
2023-04-29T07:26:53.275Z,101665.88
2023-04-29T07:29:19.867Z,101672.13
2023-04-29T07:31:46.568Z,101667.72
2023-04-29T07:34:13.656Z,101655.28
2023-04-29T07:36:40.351Z,101665.06
2023-04-29T07:39:06.974Z,101666.78
2023-04-29T07:41:33.750Z,101666.91
2023-04-29T07:44:00.422Z,101681.41
2023-04-29T07:46:27.304Z,101685.16
2023-04-29T07:48:53.915Z,101671.00
2023-04-29T07:51:21.767Z,101685.41
2023-04-29T07:53:48.270Z,101686.31
2023-04-29T07:56:14.842Z,101613.72
2023-04-29T07:58:41.569Z,101653.28
2023-04-29T08:01:10.099Z,101689.16
2023-04-29T08:03:39.895Z,101696.59
2023-04-29T08:06:08.036Z,101698.69
2023-04-29T08:08:34.963Z,101619.13
2023-04-29T08:11:01.689Z,101627.28
2023-04-29T08:13:28.780Z,101693.94
2023-04-29T08:15:55.452Z,101697.88
2023-04-29T08:18:22.100Z,101606.72
2023-04-29T08:20:49.535Z,101707.22
2023-04-29T08:23:16.385Z,101682.13
2023-04-29T08:25:43.980Z,101664.28
2023-04-29T08:28:11.111Z,101696.53
2023-04-29T08:30:39.628Z,101701.25
2023-04-29T08:33:06.725Z,101712.91
2023-04-29T08:35:33.321Z,101695.09
2023-04-29T08:38:00.622Z,101706.78
2023-04-29T08:40:27.248Z,101707.81
2023-04-29T08:42:54.683Z,101707.00
2023-04-29T08:45:25.120Z,101700.81
2023-04-29T08:47:52.743Z,101653.34
2023-04-29T08:50:19.504Z,101711.56
2023-04-29T08:52:46.118Z,101720.53
2023-04-29T08:55:12.625Z,101694.63
2023-04-29T08:57:40.907Z,101639.09
2023-04-29T09:00:10.242Z,101734.88
2023-04-29T09:02:57.179Z,101703.50
2023-04-29T09:05:24.427Z,101725.91
2023-04-29T09:07:52.502Z,101716.97
2023-04-29T09:10:19.124Z,101708.91
2023-04-29T09:12:46.745Z,101691.88
2023-04-29T09:15:13.366Z,101746.47
2023-04-29T09:17:47.151Z,101737.53
2023-04-29T09:20:27.151Z,101645.28
2023-04-29T09:23:11.839Z,101731.25
2023-04-29T09:25:38.479Z,101750.06
2023-04-29T09:28:17.428Z,101741.06
2023-04-29T09:30:47.293Z,101748.16
2023-04-29T09:33:15.250Z,101739.22
2023-04-29T09:35:41.928Z,101740.13
2023-04-29T09:38:13.744Z,101748.28
2023-04-29T09:40:57.408Z,101720.59
2023-04-29T09:43:26.211Z,101727.78
2023-04-29T09:45:53.004Z,101733.94
2023-04-29T09:48:19.618Z,101749.16
2023-04-29T09:51:01.670Z,101669.53
2023-04-29T09:53:31.595Z,101746.53
2023-04-29T09:56:02.674Z,101734.50
2023-04-29T09:58:40.306Z,101675.09
2023-04-29T10:01:07.574Z,101698.28
2023-04-29T10:03:36.518Z,101766.59
2023-04-29T10:06:05.595Z,101684.63
2023-04-29T10:08:33.877Z,101725.91
2023-04-29T10:11:02.331Z,101761.81
2023-04-29T10:13:30.505Z,101683.03
2023-04-29T10:16:03.359Z,101775.16
2023-04-29T10:18:37.281Z,101770.59
2023-04-29T10:21:07.995Z,101753.63
2023-04-29T10:23:34.594Z,101742.94
2023-04-29T10:26:03.587Z,101738.47
2023-04-29T10:28:33.462Z,101733.06
2023-04-29T10:31:03.497Z,101752.88
2023-04-29T10:33:33.801Z,101753.69
2023-04-29T10:36:01.548Z,101767.13
2023-04-29T10:38:52.777Z,101761.69
2023-04-29T10:41:30.116Z,101763.34
2023-04-29T10:44:00.024Z,101765.94
2023-04-29T10:46:27.328Z,101749.81
2023-04-29T10:49:12.143Z,101758.25
2023-04-29T10:51:44.000Z,101782.81
2023-04-29T10:54:14.810Z,101782.22
2023-04-29T10:56:53.990Z,101765.31
2023-04-29T10:59:23.128Z,101789.56
2023-04-29T11:01:53.476Z,101785.09
2023-04-29T11:04:23.478Z,101774.28
2023-04-29T11:06:55.364Z,101715.13
2023-04-29T11:09:27.202Z,101765.22
2023-04-29T11:12:09.452Z,101699.69
2023-04-29T11:14:40.422Z,101717.59
2023-04-29T11:17:13.947Z,101797.31
2023-04-29T11:19:51.310Z,101788.34
2023-04-29T11:22:17.971Z,101795.56
2023-04-29T11:24:55.127Z,101793.84
2023-04-29T11:27:25.689Z,101767.91
2023-04-29T11:29:58.738Z,101720.34
2023-04-29T11:32:34.043Z,101715.88
2023-04-29T11:35:12.307Z,101732.91
2023-04-29T11:37:40.003Z,101791.22
2023-04-29T11:40:07.805Z,101793.94
2023-04-29T11:42:54.636Z,101792.25
2023-04-29T11:45:21.329Z,101768.97
2023-04-29T11:47:49.018Z,101770.75
2023-04-29T11:50:19.155Z,101756.34
2023-04-29T11:52:49.631Z,101753.56
2023-04-29T11:55:16.353Z,101785.56
2023-04-29T11:57:43.671Z,101765.75
2023-04-29T12:00:12.807Z,101700.47
2023-04-29T12:02:43.610Z,101783.72
2023-04-29T12:05:12.704Z,101787.28
2023-04-29T12:07:40.094Z,101783.69
2023-04-29T12:10:11.289Z,101707.75
2023-04-29T12:12:40.733Z,101777.44
2023-04-29T12:15:10.015Z,101728.13
2023-04-29T12:17:37.239Z,101787.09
2023-04-29T12:20:04.240Z,101798.41
2023-04-29T12:22:33.979Z,101792.00
2023-04-29T12:25:03.592Z,101783.81
2023-04-29T12:27:30.233Z,101782.25
2023-04-29T12:29:57.764Z,101789.66
2023-04-29T12:32:25.665Z,101787.16
2023-04-29T12:34:53.198Z,101779.16
2023-04-29T12:37:23.251Z,101788.56
2023-04-29T12:39:50.797Z,101787.16
2023-04-29T12:42:17.932Z,101793.09
2023-04-29T12:44:48.474Z,101793.25
2023-04-29T12:47:16.847Z,101732.25
2023-04-29T12:49:45.882Z,101783.16
2023-04-29T12:52:12.982Z,101794.09
2023-04-29T12:54:43.689Z,101786.16
2023-04-29T12:57:12.149Z,101790.69
2023-04-29T12:59:39.745Z,101792.25
2023-04-29T13:02:06.462Z,101791.19
2023-04-29T13:04:33.296Z,101793.50
2023-04-29T13:07:00.686Z,101794.56
2023-04-29T13:09:27.408Z,101797.38
2023-04-29T13:11:54.252Z,101788.38
2023-04-29T13:14:21.157Z,101802.06
2023-04-29T13:16:47.769Z,101792.28
2023-04-29T13:19:32.163Z,101806.03
2023-04-29T13:22:01.588Z,101802.41
2023-04-29T13:24:28.166Z,101742.59
2023-04-29T13:26:54.876Z,101806.25
2023-04-29T13:29:21.391Z,101798.28
2023-04-29T13:31:48.171Z,101786.84
2023-04-29T13:34:14.855Z,101793.25
2023-04-29T13:36:41.429Z,101749.28
2023-04-29T13:39:08.481Z,101808.09
2023-04-29T13:41:35.583Z,101800.75
2023-04-29T13:44:02.772Z,101794.53
2023-04-29T13:46:31.533Z,101735.16
2023-04-29T13:49:20.903Z,101784.09
2023-04-29T13:52:26.264Z,101794.56
2023-04-29T13:57:55.372Z,101789.50
2023-04-29T13:59:53.136Z,101804.28
2023-04-29T14:04:49.895Z,101802.88
2023-04-29T14:07:16.803Z,101808.41
2023-04-29T14:09:43.345Z,101810.50
2023-04-29T14:12:10.371Z,101787.50
2023-04-29T14:14:36.947Z,101800.63
2023-04-29T14:17:03.723Z,101808.34
2023-04-29T14:19:30.253Z,101811.66
2023-04-29T14:21:56.778Z,101801.72
2023-04-29T14:24:23.310Z,101799.50
2023-04-29T14:26:49.935Z,101741.25
2023-04-29T14:29:16.483Z,101806.63
2023-04-29T14:31:43.197Z,101804.84
2023-04-29T14:34:09.755Z,101740.78
2023-04-29T14:36:36.235Z,101801.13
2023-04-29T14:39:04.227Z,101730.34
2023-04-29T14:41:30.865Z,101784.69
2023-04-29T14:43:57.377Z,101815.00
2023-04-29T14:46:25.193Z,101798.97
2023-04-29T14:48:51.893Z,101808.19
2023-04-29T14:51:18.494Z,101777.41
2023-04-29T14:53:45.109Z,101819.66
2023-04-29T14:56:11.663Z,101823.88
2023-04-29T14:58:38.254Z,101820.72
2023-04-29T15:01:04.808Z,101829.03
2023-04-29T15:03:31.824Z,101776.56
2023-04-29T15:05:58.827Z,101816.94
2023-04-29T15:08:25.445Z,101822.44
2023-04-29T15:10:51.978Z,101815.31
2023-04-29T15:13:18.674Z,101824.38
2023-04-29T15:15:45.328Z,101812.78
2023-04-29T15:18:11.850Z,101830.72
2023-04-29T15:20:38.503Z,101785.94
2023-04-29T15:23:05.917Z,101757.31
2023-04-29T15:25:34.621Z,101823.59
2023-04-29T15:28:03.857Z,101844.19
2023-04-29T15:30:30.643Z,101832.53
2023-04-29T15:32:57.797Z,101828.06
2023-04-29T15:35:24.379Z,101790.47
2023-04-29T15:37:51.042Z,101811.03
2023-04-29T15:40:17.829Z,101830.75
2023-04-29T15:42:44.602Z,101842.38
2023-04-29T15:45:11.590Z,101824.50
2023-04-29T15:47:38.697Z,101851.38
2023-04-29T15:50:06.042Z,101826.28
2023-04-29T15:52:32.564Z,101833.44
2023-04-29T15:54:59.328Z,101820.91
2023-04-29T15:57:26.135Z,101846.00
2023-04-29T15:59:53.306Z,101844.19
2023-04-29T16:02:20.964Z,101833.44
2023-04-29T16:04:47.798Z,101822.69
2023-04-29T16:07:14.554Z,101851.38
2023-04-29T16:09:41.279Z,101829.88
2023-04-29T16:12:08.468Z,101828.06
2023-04-29T16:14:35.078Z,101773.38
2023-04-29T16:17:02.028Z,101853.13
2023-04-29T16:19:28.752Z,101847.69
2023-04-29T16:21:55.455Z,101826.16
2023-04-29T16:24:22.141Z,101827.06
2023-04-29T16:26:50.410Z,101835.06
2023-04-29T16:29:18.209Z,101834.16
2023-04-29T16:31:45.943Z,101783.91
2023-04-29T16:34:12.656Z,101856.47
2023-04-29T16:36:39.342Z,101852.88
2023-04-29T16:39:06.205Z,101851.03
2023-04-29T16:41:33.205Z,101850.03
2023-04-29T16:43:59.848Z,101772.00
2023-04-29T16:46:26.580Z,101834.78
2023-04-29T16:48:56.830Z,101824.84
2023-04-29T16:51:27.435Z,101795.19
2023-04-29T16:53:54.836Z,101866.91
2023-04-29T16:56:24.340Z,101755.69
2023-04-29T16:58:51.113Z,101792.41
2023-04-29T17:01:19.745Z,101735.03
2023-04-29T17:03:47.770Z,101855.16
2023-04-29T17:06:15.878Z,101847.03
2023-04-29T17:08:43.082Z,101873.94
2023-04-29T17:11:10.294Z,101822.81
2023-04-29T17:13:36.981Z,101783.28
2023-04-29T17:16:03.895Z,101844.28
2023-04-29T17:18:30.637Z,101852.34
2023-04-29T17:20:57.221Z,101674.66
2023-04-29T17:23:23.883Z,101879.13
2023-04-29T17:25:50.517Z,101843.16
2023-04-29T17:28:17.261Z,101861.91
2023-04-29T17:30:45.020Z,101821.44
2023-04-29T17:33:13.383Z,101858.13
2023-04-29T17:35:41.014Z,101854.41
2023-04-29T17:38:08.100Z,101883.78
2023-04-29T17:40:34.715Z,101685.16
2023-04-29T17:43:01.583Z,101853.69
2023-04-29T17:45:28.301Z,101822.06
2023-04-29T17:47:55.411Z,101879.38
2023-04-29T17:50:21.981Z,101853.13
2023-04-29T17:52:48.566Z,101864.59
2023-04-29T17:55:15.188Z,101869.06
2023-04-29T17:57:41.912Z,101882.81
2023-04-29T18:00:10.749Z,101878.69
2023-04-29T18:02:37.566Z,101876.09
2023-04-29T18:05:04.473Z,101842.84
2023-04-29T18:07:31.091Z,101874.34
2023-04-29T18:09:58.560Z,101877.03
2023-04-29T18:12:25.531Z,101809.69
2023-04-29T18:14:52.293Z,101861.75
2023-04-29T18:17:19.749Z,101808.25
2023-04-29T18:19:48.614Z,101858.75
2023-04-29T18:22:15.865Z,101853.44
2023-04-29T18:24:42.790Z,101881.13
2023-04-29T18:27:09.410Z,101878.13
2023-04-29T18:29:36.090Z,101877.75
2023-04-29T18:32:03.857Z,101891.78
2023-04-29T18:34:31.361Z,101912.94
2023-04-29T18:36:57.909Z,101886.59
2023-04-29T18:39:24.635Z,101906.91
2023-04-29T18:41:52.116Z,101745.84
2023-04-29T18:44:18.692Z,101636.13
2023-04-29T18:46:45.352Z,101836.19
2023-04-29T18:49:16.105Z,101871.84
2023-04-29T18:51:46.767Z,101923.66
2023-04-29T18:54:15.400Z,101890.19
2023-04-29T18:56:44.200Z,101851.06
2023-04-29T18:59:12.754Z,101917.06
2023-04-29T19:01:39.455Z,101844.97
2023-04-29T19:04:08.578Z,101935.53
2023-04-29T19:06:36.612Z,101907.31
2023-04-29T19:09:03.758Z,101926.91
2023-04-29T19:11:30.264Z,101924.72
2023-04-29T19:13:57.603Z,101915.56
2023-04-29T19:16:24.762Z,101931.50
2023-04-29T19:18:51.350Z,101957.13
2023-04-29T19:21:18.437Z,101956.06
2023-04-29T19:23:45.297Z,101928.91
2023-04-29T19:26:11.943Z,101940.44
2023-04-29T19:28:38.660Z,101945.34
2023-04-29T19:31:05.399Z,101973.06
2023-04-29T19:33:32.076Z,101883.56
2023-04-29T19:35:58.616Z,101949.22
2023-04-29T19:38:25.712Z,101946.25
2023-04-29T19:40:55.545Z,101949.56
2023-04-29T19:43:22.860Z,101951.16
2023-04-29T19:45:49.655Z,101942.81
2023-04-29T19:48:16.406Z,101993.78
2023-04-29T19:50:43.332Z,101974.63
2023-04-29T19:53:11.467Z,101970.75
2023-04-29T19:55:39.858Z,101981.19
2023-04-29T19:58:07.121Z,102001.53
2023-04-29T20:00:34.193Z,101957.47
2023-04-29T20:03:01.128Z,101899.56
2023-04-29T20:05:28.805Z,101916.56
2023-04-29T20:07:56.074Z,101927.03
2023-04-29T20:10:23.018Z,101943.00
2023-04-29T20:12:49.794Z,101964.41
2023-04-29T20:15:16.638Z,101927.31
2023-04-29T20:17:43.463Z,101954.91
2023-04-29T20:20:10.523Z,101987.38
2023-04-29T20:22:38.435Z,102008.88
2023-04-29T20:25:05.750Z,102017.75
2023-04-29T20:27:32.348Z,101919.19
2023-04-29T20:29:58.985Z,101991.13
2023-04-29T20:32:26.070Z,102009.81
2023-04-29T20:34:53.748Z,101989.03
2023-04-29T20:37:20.411Z,101999.44
2023-04-29T20:39:47.364Z,101991.97
2023-04-29T20:42:13.938Z,102031.34
2023-04-29T20:44:40.966Z,101941.97
2023-04-29T20:47:07.727Z,102034.91
2023-04-29T20:49:34.405Z,102018.41
2023-04-29T20:52:01.310Z,102016.72
2023-04-29T20:54:28.017Z,102042.03
2023-04-29T20:56:54.538Z,101933.59
2023-04-29T20:59:21.086Z,102031.88
2023-04-29T21:01:47.635Z,102013.00
2023-04-29T21:04:14.569Z,102043.38
2023-04-29T21:06:41.448Z,102018.28
2023-04-29T21:09:08.958Z,102017.34
2023-04-29T21:11:35.608Z,102034.56
2023-04-29T21:14:02.131Z,101998.31
2023-04-29T21:16:29.842Z,102039.75
2023-04-29T21:18:56.430Z,101963.69
2023-04-29T21:21:23.226Z,102023.50
2023-04-29T21:23:52.979Z,102034.31
2023-04-29T21:26:19.530Z,102047.09
2023-04-29T21:28:46.309Z,102046.25
2023-04-29T21:31:16.334Z,102043.81
2023-04-29T21:33:44.303Z,101967.75
2023-04-29T21:36:11.022Z,102020.25
2023-04-29T21:38:38.651Z,102031.56
2023-04-29T21:41:06.217Z,102042.28
2023-04-29T21:43:33.357Z,102067.44
2023-04-29T21:46:00.470Z,102036.69
2023-04-29T21:48:27.467Z,102070.03
2023-04-29T21:50:54.133Z,102022.09
2023-04-29T21:53:20.886Z,102049.44
2023-04-29T21:55:47.811Z,102045.78
2023-04-29T21:58:15.994Z,102059.94
2023-04-29T22:00:51.096Z,102046.31
2023-04-29T22:03:17.968Z,102044.59
2023-04-29T22:05:44.694Z,102020.13
2023-04-29T22:08:11.382Z,102046.06
2023-04-29T22:10:40.029Z,102059.34
2023-04-29T22:13:07.482Z,101991.69
2023-04-29T22:15:34.087Z,101984.91
2023-04-29T22:18:00.828Z,102077.00
2023-04-29T22:20:27.979Z,101992.91
2023-04-29T22:22:55.126Z,102100.47
2023-04-29T22:25:22.146Z,102080.25
2023-04-29T22:27:49.974Z,101942.97
2023-04-29T22:30:17.678Z,102081.69
2023-04-29T22:32:44.393Z,102095.25
2023-04-29T22:35:11.195Z,102078.69
2023-04-29T22:37:37.802Z,101980.56
2023-04-29T22:40:06.046Z,102067.34
2023-04-29T22:42:32.602Z,102105.53
2023-04-29T22:44:59.174Z,102093.72
2023-04-29T22:47:26.235Z,102080.22
2023-04-29T22:49:52.977Z,102061.19
2023-04-29T22:52:19.758Z,102106.38
2023-04-29T22:54:47.302Z,102104.38
2023-04-29T22:57:13.927Z,102004.66
2023-04-29T22:59:40.634Z,102089.28
2023-04-29T23:02:07.430Z,102087.16
2023-04-29T23:04:34.019Z,102091.13
2023-04-29T23:07:00.725Z,102069.41
2023-04-29T23:09:27.383Z,102106.28
2023-04-29T23:11:53.959Z,102083.81
2023-04-29T23:14:21.622Z,102079.66
2023-04-29T23:16:51.094Z,102064.94
2023-04-29T23:19:17.769Z,102088.66
2023-04-29T23:21:44.482Z,102120.38
2023-04-29T23:24:12.141Z,102117.72
2023-04-29T23:26:38.819Z,102099.38
2023-04-29T23:29:06.075Z,102095.91
2023-04-29T23:31:32.690Z,102082.16
2023-04-29T23:34:00.341Z,102134.25
2023-04-29T23:36:28.012Z,102121.47
2023-04-29T23:38:54.636Z,102092.63
2023-04-29T23:41:21.243Z,102120.19
2023-04-29T23:43:47.924Z,102086.09
2023-04-29T23:46:14.572Z,102128.00
2023-04-29T23:48:41.115Z,102135.53
2023-04-29T23:51:08.214Z,102058.16
2023-04-29T23:53:34.976Z,102118.53
2023-04-29T23:56:01.663Z,102105.59
2023-04-29T23:58:28.395Z,102131.63
